sensor_id;sensor_type;location;lat;lon;timestamp;temperature;humidity
44069;DHT22;29738;51.234;5.484;2023-03-05T00:01:52;6.20;99.90
44069;DHT22;29738;51.234;5.484;2023-03-05T00:04:18;6.20;99.90
44069;DHT22;29738;51.234;5.484;2023-03-05T00:06:44;6.30;99.90
44069;DHT22;29738;51.234;5.484;2023-03-05T00:09:09;6.10;99.90
44069;DHT22;29738;51.234;5.484;2023-03-05T00:11:35;6.20;99.90
44069;DHT22;29738;51.234;5.484;2023-03-05T00:14:02;6.20;99.90
44069;DHT22;29738;51.234;5.484;2023-03-05T00:16:29;6.20;99.90
44069;DHT22;29738;51.234;5.484;2023-03-05T00:18:56;6.00;99.90
44069;DHT22;29738;51.234;5.484;2023-03-05T00:21:28;6.00;99.90
44069;DHT22;29738;51.234;5.484;2023-03-05T00:23:55;6.00;99.90
44069;DHT22;29738;51.234;5.484;2023-03-05T00:26:23;6.10;99.90
44069;DHT22;29738;51.234;5.484;2023-03-05T00:28:50;6.30;99.90
44069;DHT22;29738;51.234;5.484;2023-03-05T00:31:21;6.30;99.90
44069;DHT22;29738;51.234;5.484;2023-03-05T00:33:58;6.30;99.90
44069;DHT22;29738;51.234;5.484;2023-03-05T00:36:25;6.20;99.90
44069;DHT22;29738;51.234;5.484;2023-03-05T00:38:51;6.00;99.90
44069;DHT22;29738;51.234;5.484;2023-03-05T00:41:17;6.00;99.90
44069;DHT22;29738;51.234;5.484;2023-03-05T00:43:43;6.10;99.90
44069;DHT22;29738;51.234;5.484;2023-03-05T00:46:09;6.00;99.90
44069;DHT22;29738;51.234;5.484;2023-03-05T00:48:35;5.80;99.90
44069;DHT22;29738;51.234;5.484;2023-03-05T00:51:01;6.00;99.90
44069;DHT22;29738;51.234;5.484;2023-03-05T00:53:27;6.10;99.90
44069;DHT22;29738;51.234;5.484;2023-03-05T00:55:53;6.00;99.90
44069;DHT22;29738;51.234;5.484;2023-03-05T00:58:19;5.90;99.90
44069;DHT22;29738;51.234;5.484;2023-03-05T01:00:45;6.10;99.90
44069;DHT22;29738;51.234;5.484;2023-03-05T01:03:10;6.20;99.90
44069;DHT22;29738;51.234;5.484;2023-03-05T01:05:36;6.20;99.90
44069;DHT22;29738;51.234;5.484;2023-03-05T01:08:02;6.10;99.90
44069;DHT22;29738;51.234;5.484;2023-03-05T01:10:28;6.00;99.90
44069;DHT22;29738;51.234;5.484;2023-03-05T01:12:55;6.00;99.90
44069;DHT22;29738;51.234;5.484;2023-03-05T01:15:22;5.90;99.90
44069;DHT22;29738;51.234;5.484;2023-03-05T01:17:48;6.00;99.90
44069;DHT22;29738;51.234;5.484;2023-03-05T01:20:18;5.80;99.90
44069;DHT22;29738;51.234;5.484;2023-03-05T01:22:45;5.60;99.90
44069;DHT22;29738;51.234;5.484;2023-03-05T01:25:12;5.70;99.90
44069;DHT22;29738;51.234;5.484;2023-03-05T01:27:38;5.90;99.90
44069;DHT22;29738;51.234;5.484;2023-03-05T01:30:05;5.70;99.90
44069;DHT22;29738;51.234;5.484;2023-03-05T01:32:33;5.90;99.90
44069;DHT22;29738;51.234;5.484;2023-03-05T01:35:00;5.90;99.90
44069;DHT22;29738;51.234;5.484;2023-03-05T01:37:26;5.70;99.90
44069;DHT22;29738;51.234;5.484;2023-03-05T01:39:52;5.70;99.90
44069;DHT22;29738;51.234;5.484;2023-03-05T01:42:17;5.80;99.90
44069;DHT22;29738;51.234;5.484;2023-03-05T01:45:17;5.70;99.90
44069;DHT22;29738;51.234;5.484;2023-03-05T01:47:44;5.80;99.90
44069;DHT22;29738;51.234;5.484;2023-03-05T01:50:16;5.60;99.90
44069;DHT22;29738;51.234;5.484;2023-03-05T01:52:48;5.80;99.90
44069;DHT22;29738;51.234;5.484;2023-03-05T01:55:18;6.00;99.90
44069;DHT22;29738;51.234;5.484;2023-03-05T01:57:47;5.70;99.90
44069;DHT22;29738;51.234;5.484;2023-03-05T02:00:18;5.70;99.90
44069;DHT22;29738;51.234;5.484;2023-03-05T02:02:47;5.60;99.90
44069;DHT22;29738;51.234;5.484;2023-03-05T02:05:34;5.60;99.90
44069;DHT22;29738;51.234;5.484;2023-03-05T02:08:04;5.70;99.90
44069;DHT22;29738;51.234;5.484;2023-03-05T02:13:01;5.90;99.90
44069;DHT22;29738;51.234;5.484;2023-03-05T02:15:29;5.90;99.90
44069;DHT22;29738;51.234;5.484;2023-03-05T02:17:55;5.80;99.90
44069;DHT22;29738;51.234;5.484;2023-03-05T02:20:25;5.70;99.90
44069;DHT22;29738;51.234;5.484;2023-03-05T02:22:51;5.70;99.90
44069;DHT22;29738;51.234;5.484;2023-03-05T02:25:21;5.80;99.90
44069;DHT22;29738;51.234;5.484;2023-03-05T02:28:11;5.80;99.90
44069;DHT22;29738;51.234;5.484;2023-03-05T02:30:39;5.70;99.90
44069;DHT22;29738;51.234;5.484;2023-03-05T02:33:05;5.70;99.90
44069;DHT22;29738;51.234;5.484;2023-03-05T02:35:31;5.70;99.90
44069;DHT22;29738;51.234;5.484;2023-03-05T02:37:57;5.60;99.90
44069;DHT22;29738;51.234;5.484;2023-03-05T02:40:23;5.50;99.90
44069;DHT22;29738;51.234;5.484;2023-03-05T02:42:49;5.80;99.90
44069;DHT22;29738;51.234;5.484;2023-03-05T02:45:15;5.90;99.90
44069;DHT22;29738;51.234;5.484;2023-03-05T02:47:41;5.90;99.90
44069;DHT22;29738;51.234;5.484;2023-03-05T02:50:08;5.70;99.90
44069;DHT22;29738;51.234;5.484;2023-03-05T02:52:34;5.80;99.90
44069;DHT22;29738;51.234;5.484;2023-03-05T02:55:00;5.90;99.90
44069;DHT22;29738;51.234;5.484;2023-03-05T02:57:27;5.70;99.90
44069;DHT22;29738;51.234;5.484;2023-03-05T02:59:53;5.90;99.90
44069;DHT22;29738;51.234;5.484;2023-03-05T03:02:19;6.10;99.90
44069;DHT22;29738;51.234;5.484;2023-03-05T03:04:45;6.10;99.90
44069;DHT22;29738;51.234;5.484;2023-03-05T03:07:13;5.90;99.90
44069;DHT22;29738;51.234;5.484;2023-03-05T03:09:40;5.90;99.90
44069;DHT22;29738;51.234;5.484;2023-03-05T03:12:10;5.90;99.90
44069;DHT22;29738;51.234;5.484;2023-03-05T03:14:38;5.70;99.90
44069;DHT22;29738;51.234;5.484;2023-03-05T03:17:15;5.60;99.90
44069;DHT22;29738;51.234;5.484;2023-03-05T03:19:42;5.40;99.90
44069;DHT22;29738;51.234;5.484;2023-03-05T03:22:09;5.40;99.90
44069;DHT22;29738;51.234;5.484;2023-03-05T03:24:37;5.50;99.90
44069;DHT22;29738;51.234;5.484;2023-03-05T03:27:03;5.50;99.90
44069;DHT22;29738;51.234;5.484;2023-03-05T03:29:30;5.50;99.90
44069;DHT22;29738;51.234;5.484;2023-03-05T03:31:56;5.70;99.90
44069;DHT22;29738;51.234;5.484;2023-03-05T03:34:22;5.70;99.90
44069;DHT22;29738;51.234;5.484;2023-03-05T03:36:49;5.80;99.90
44069;DHT22;29738;51.234;5.484;2023-03-05T03:39:15;6.00;99.90
44069;DHT22;29738;51.234;5.484;2023-03-05T03:41:43;5.70;99.90
44069;DHT22;29738;51.234;5.484;2023-03-05T03:44:09;5.70;99.90
44069;DHT22;29738;51.234;5.484;2023-03-05T03:46:36;5.70;99.90
44069;DHT22;29738;51.234;5.484;2023-03-05T03:49:03;5.30;99.90
44069;DHT22;29738;51.234;5.484;2023-03-05T03:51:28;5.40;99.90
44069;DHT22;29738;51.234;5.484;2023-03-05T03:53:55;5.40;99.90
44069;DHT22;29738;51.234;5.484;2023-03-05T03:56:20;5.20;99.90
44069;DHT22;29738;51.234;5.484;2023-03-05T03:58:49;5.20;99.90
44069;DHT22;29738;51.234;5.484;2023-03-05T04:01:17;5.30;99.90
44069;DHT22;29738;51.234;5.484;2023-03-05T04:03:43;5.30;99.90
44069;DHT22;29738;51.234;5.484;2023-03-05T04:06:09;5.20;99.90
44069;DHT22;29738;51.234;5.484;2023-03-05T04:08:35;5.40;99.90
44069;DHT22;29738;51.234;5.484;2023-03-05T04:11:01;5.30;99.90
44069;DHT22;29738;51.234;5.484;2023-03-05T04:13:27;5.30;99.90
44069;DHT22;29738;51.234;5.484;2023-03-05T04:15:53;5.40;99.90
44069;DHT22;29738;51.234;5.484;2023-03-05T04:18:19;5.20;99.90
44069;DHT22;29738;51.234;5.484;2023-03-05T04:20:45;5.20;99.90
44069;DHT22;29738;51.234;5.484;2023-03-05T04:23:11;5.40;99.90
44069;DHT22;29738;51.234;5.484;2023-03-05T04:25:37;5.50;99.90
44069;DHT22;29738;51.234;5.484;2023-03-05T04:28:03;5.30;99.90
44069;DHT22;29738;51.234;5.484;2023-03-05T04:30:29;5.50;99.90
44069;DHT22;29738;51.234;5.484;2023-03-05T04:32:56;5.60;99.90
44069;DHT22;29738;51.234;5.484;2023-03-05T04:35:21;5.70;99.90
44069;DHT22;29738;51.234;5.484;2023-03-05T04:37:47;5.60;99.90
44069;DHT22;29738;51.234;5.484;2023-03-05T04:40:13;5.70;99.90
44069;DHT22;29738;51.234;5.484;2023-03-05T04:42:40;5.60;99.90
44069;DHT22;29738;51.234;5.484;2023-03-05T04:45:06;5.40;99.90
44069;DHT22;29738;51.234;5.484;2023-03-05T04:47:33;5.60;99.90
44069;DHT22;29738;51.234;5.484;2023-03-05T04:49:59;5.70;99.90
44069;DHT22;29738;51.234;5.484;2023-03-05T04:52:25;5.40;99.90
44069;DHT22;29738;51.234;5.484;2023-03-05T04:54:51;5.40;99.90
44069;DHT22;29738;51.234;5.484;2023-03-05T04:57:19;5.30;99.90
44069;DHT22;29738;51.234;5.484;2023-03-05T04:59:45;5.20;99.90
44069;DHT22;29738;51.234;5.484;2023-03-05T05:02:10;5.00;99.90
44069;DHT22;29738;51.234;5.484;2023-03-05T05:04:36;5.00;99.90
44069;DHT22;29738;51.234;5.484;2023-03-05T05:07:03;5.10;99.90
44069;DHT22;29738;51.234;5.484;2023-03-05T05:09:29;5.20;99.90
44069;DHT22;29738;51.234;5.484;2023-03-05T05:11:55;5.00;99.90
44069;DHT22;29738;51.234;5.484;2023-03-05T05:14:21;5.00;99.90
44069;DHT22;29738;51.234;5.484;2023-03-05T05:16:47;5.10;99.90
44069;DHT22;29738;51.234;5.484;2023-03-05T05:19:12;5.30;99.90
44069;DHT22;29738;51.234;5.484;2023-03-05T05:21:38;5.10;99.90
44069;DHT22;29738;51.234;5.484;2023-03-05T05:24:04;4.80;99.90
44069;DHT22;29738;51.234;5.484;2023-03-05T05:26:30;4.60;99.90
44069;DHT22;29738;51.234;5.484;2023-03-05T05:28:56;4.60;99.90
44069;DHT22;29738;51.234;5.484;2023-03-05T05:31:22;4.60;99.90
44069;DHT22;29738;51.234;5.484;2023-03-05T05:33:48;4.40;99.90
44069;DHT22;29738;51.234;5.484;2023-03-05T05:36:15;4.60;99.90
44069;DHT22;29738;51.234;5.484;2023-03-05T05:38:44;4.70;99.90
44069;DHT22;29738;51.234;5.484;2023-03-05T05:41:12;4.70;99.90
44069;DHT22;29738;51.234;5.484;2023-03-05T05:43:38;4.50;99.90
44069;DHT22;29738;51.234;5.484;2023-03-05T05:46:11;4.60;99.90
44069;DHT22;29738;51.234;5.484;2023-03-05T05:48:37;4.80;99.90
44069;DHT22;29738;51.234;5.484;2023-03-05T05:51:08;4.90;99.90
44069;DHT22;29738;51.234;5.484;2023-03-05T05:53:35;5.00;99.90
44069;DHT22;29738;51.234;5.484;2023-03-05T05:56:03;5.00;99.90
44069;DHT22;29738;51.234;5.484;2023-03-05T05:58:29;5.00;99.90
44069;DHT22;29738;51.234;5.484;2023-03-05T06:00:55;4.70;99.90
44069;DHT22;29738;51.234;5.484;2023-03-05T06:03:21;4.60;99.90
44069;DHT22;29738;51.234;5.484;2023-03-05T06:05:47;4.80;99.90
44069;DHT22;29738;51.234;5.484;2023-03-05T06:08:12;4.70;99.90
44069;DHT22;29738;51.234;5.484;2023-03-05T06:10:38;4.80;99.90
44069;DHT22;29738;51.234;5.484;2023-03-05T06:13:04;5.00;99.90
44069;DHT22;29738;51.234;5.484;2023-03-05T06:15:30;4.90;99.90
44069;DHT22;29738;51.234;5.484;2023-03-05T06:17:58;4.90;99.90
44069;DHT22;29738;51.234;5.484;2023-03-05T06:20:24;4.70;99.90
44069;DHT22;29738;51.234;5.484;2023-03-05T06:22:50;4.80;99.90
44069;DHT22;29738;51.234;5.484;2023-03-05T06:25:16;4.80;99.90
44069;DHT22;29738;51.234;5.484;2023-03-05T06:27:41;5.00;99.90
44069;DHT22;29738;51.234;5.484;2023-03-05T06:30:09;4.90;99.90
44069;DHT22;29738;51.234;5.484;2023-03-05T06:32:35;5.10;99.90
44069;DHT22;29738;51.234;5.484;2023-03-05T06:35:01;5.00;99.90
44069;DHT22;29738;51.234;5.484;2023-03-05T06:37:27;5.00;99.90
44069;DHT22;29738;51.234;5.484;2023-03-05T06:39:53;4.90;99.90
44069;DHT22;29738;51.234;5.484;2023-03-05T06:42:18;5.00;99.90
44069;DHT22;29738;51.234;5.484;2023-03-05T06:44:45;4.70;99.90
44069;DHT22;29738;51.234;5.484;2023-03-05T06:47:11;4.60;99.90
44069;DHT22;29738;51.234;5.484;2023-03-05T06:49:37;4.70;99.90
44069;DHT22;29738;51.234;5.484;2023-03-05T06:52:04;4.60;99.90
44069;DHT22;29738;51.234;5.484;2023-03-05T06:54:31;4.70;99.90
44069;DHT22;29738;51.234;5.484;2023-03-05T06:56:57;4.80;99.90
44069;DHT22;29738;51.234;5.484;2023-03-05T06:59:23;4.70;99.90
44069;DHT22;29738;51.234;5.484;2023-03-05T07:01:49;4.50;99.90
44069;DHT22;29738;51.234;5.484;2023-03-05T07:04:15;4.60;99.90
44069;DHT22;29738;51.234;5.484;2023-03-05T07:06:41;4.40;99.90
44069;DHT22;29738;51.234;5.484;2023-03-05T07:09:10;4.50;99.90
44069;DHT22;29738;51.234;5.484;2023-03-05T07:11:37;4.70;99.90
44069;DHT22;29738;51.234;5.484;2023-03-05T07:14:03;4.60;99.90
44069;DHT22;29738;51.234;5.484;2023-03-05T07:16:31;4.60;99.90
44069;DHT22;29738;51.234;5.484;2023-03-05T07:18:58;4.60;99.90
44069;DHT22;29738;51.234;5.484;2023-03-05T07:21:29;4.60;99.90
44069;DHT22;29738;51.234;5.484;2023-03-05T07:23:58;4.50;99.90
44069;DHT22;29738;51.234;5.484;2023-03-05T07:26:25;4.60;99.90
44069;DHT22;29738;51.234;5.484;2023-03-05T07:28:51;4.50;99.90
44069;DHT22;29738;51.234;5.484;2023-03-05T07:31:20;4.50;99.90
44069;DHT22;29738;51.234;5.484;2023-03-05T07:33:48;4.50;99.90
44069;DHT22;29738;51.234;5.484;2023-03-05T07:36:14;4.50;99.90
44069;DHT22;29738;51.234;5.484;2023-03-05T07:38:40;4.30;99.90
44069;DHT22;29738;51.234;5.484;2023-03-05T07:41:09;4.40;99.90
44069;DHT22;29738;51.234;5.484;2023-03-05T07:43:35;4.50;99.90
44069;DHT22;29738;51.234;5.484;2023-03-05T07:46:06;4.50;99.90
44069;DHT22;29738;51.234;5.484;2023-03-05T07:48:33;4.60;99.90
44069;DHT22;29738;51.234;5.484;2023-03-05T07:51:03;4.60;99.90
44069;DHT22;29738;51.234;5.484;2023-03-05T07:53:29;4.60;99.90
44069;DHT22;29738;51.234;5.484;2023-03-05T07:55:55;4.70;99.90
44069;DHT22;29738;51.234;5.484;2023-03-05T07:58:21;4.80;99.90
44069;DHT22;29738;51.234;5.484;2023-03-05T08:00:47;4.90;99.90
44069;DHT22;29738;51.234;5.484;2023-03-05T08:03:13;4.80;99.90
44069;DHT22;29738;51.234;5.484;2023-03-05T08:05:39;4.80;99.90
44069;DHT22;29738;51.234;5.484;2023-03-05T08:08:05;4.90;99.90
44069;DHT22;29738;51.234;5.484;2023-03-05T08:10:32;5.00;99.90
44069;DHT22;29738;51.234;5.484;2023-03-05T08:12:58;4.90;99.90
44069;DHT22;29738;51.234;5.484;2023-03-05T08:15:24;5.00;99.90
44069;DHT22;29738;51.234;5.484;2023-03-05T08:17:50;5.00;99.90
44069;DHT22;29738;51.234;5.484;2023-03-05T08:20:16;4.90;99.90
44069;DHT22;29738;51.234;5.484;2023-03-05T08:22:43;4.90;99.90
44069;DHT22;29738;51.234;5.484;2023-03-05T08:25:09;4.90;99.90
44069;DHT22;29738;51.234;5.484;2023-03-05T08:27:40;5.10;99.90
44069;DHT22;29738;51.234;5.484;2023-03-05T08:30:07;5.10;99.90
44069;DHT22;29738;51.234;5.484;2023-03-05T08:32:33;5.30;99.90
44069;DHT22;29738;51.234;5.484;2023-03-05T08:34:59;5.20;99.90
44069;DHT22;29738;51.234;5.484;2023-03-05T08:37:27;5.30;99.90
44069;DHT22;29738;51.234;5.484;2023-03-05T08:39:53;5.30;99.90
44069;DHT22;29738;51.234;5.484;2023-03-05T08:42:21;5.30;99.90
44069;DHT22;29738;51.234;5.484;2023-03-05T08:44:46;5.20;99.90
44069;DHT22;29738;51.234;5.484;2023-03-05T08:47:12;5.30;99.90
44069;DHT22;29738;51.234;5.484;2023-03-05T08:49:38;5.40;99.90
44069;DHT22;29738;51.234;5.484;2023-03-05T08:52:04;5.40;99.90
44069;DHT22;29738;51.234;5.484;2023-03-05T08:54:30;5.30;99.90
44069;DHT22;29738;51.234;5.484;2023-03-05T08:56:56;5.30;99.90
44069;DHT22;29738;51.234;5.484;2023-03-05T08:59:22;5.30;99.90
44069;DHT22;29738;51.234;5.484;2023-03-05T09:01:48;5.30;99.90
44069;DHT22;29738;51.234;5.484;2023-03-05T09:04:13;5.40;99.90
44069;DHT22;29738;51.234;5.484;2023-03-05T09:06:40;5.50;99.90
44069;DHT22;29738;51.234;5.484;2023-03-05T09:09:07;5.70;99.90
44069;DHT22;29738;51.234;5.484;2023-03-05T09:11:34;5.80;99.90
44069;DHT22;29738;51.234;5.484;2023-03-05T09:14:02;6.00;99.90
44069;DHT22;29738;51.234;5.484;2023-03-05T09:16:28;6.10;99.90
44069;DHT22;29738;51.234;5.484;2023-03-05T09:18:54;6.10;99.90
44069;DHT22;29738;51.234;5.484;2023-03-05T09:21:20;6.00;99.90
44069;DHT22;29738;51.234;5.484;2023-03-05T09:23:46;6.10;99.90
44069;DHT22;29738;51.234;5.484;2023-03-05T09:26:14;6.00;99.90
44069;DHT22;29738;51.234;5.484;2023-03-05T09:28:45;6.20;99.90
44069;DHT22;29738;51.234;5.484;2023-03-05T09:31:11;6.10;99.90
44069;DHT22;29738;51.234;5.484;2023-03-05T09:33:38;6.10;99.90
44069;DHT22;29738;51.234;5.484;2023-03-05T09:36:12;6.20;99.90
44069;DHT22;29738;51.234;5.484;2023-03-05T09:38:40;6.30;99.90
44069;DHT22;29738;51.234;5.484;2023-03-05T09:46:52;6.40;99.90
44069;DHT22;29738;51.234;5.484;2023-03-05T09:50:39;6.40;99.90
44069;DHT22;29738;51.234;5.484;2023-03-05T09:52:56;6.30;99.90
44069;DHT22;29738;51.234;5.484;2023-03-05T09:55:24;6.40;99.90
44069;DHT22;29738;51.234;5.484;2023-03-05T09:57:55;6.40;99.90
44069;DHT22;29738;51.234;5.484;2023-03-05T10:00:35;6.40;99.90
44069;DHT22;29738;51.234;5.484;2023-03-05T10:03:13;6.50;99.90
44069;DHT22;29738;51.234;5.484;2023-03-05T10:14:01;6.80;99.90
44069;DHT22;29738;51.234;5.484;2023-03-05T10:22:50;6.60;99.90
44069;DHT22;29738;51.234;5.484;2023-03-05T10:27:44;6.80;99.90
44069;DHT22;29738;51.234;5.484;2023-03-05T10:41:56;6.70;99.90
44069;DHT22;29738;51.234;5.484;2023-03-05T10:44:44;7.00;99.90
44069;DHT22;29738;51.234;5.484;2023-03-05T10:47:31;7.10;99.90
44069;DHT22;29738;51.234;5.484;2023-03-05T10:50:00;6.90;99.90
44069;DHT22;29738;51.234;5.484;2023-03-05T10:52:40;7.00;99.90
44069;DHT22;29738;51.234;5.484;2023-03-05T10:55:20;7.00;99.90
44069;DHT22;29738;51.234;5.484;2023-03-05T10:57:46;6.80;99.90
44069;DHT22;29738;51.234;5.484;2023-03-05T11:00:17;6.80;99.90
44069;DHT22;29738;51.234;5.484;2023-03-05T11:03:05;7.00;99.90
44069;DHT22;29738;51.234;5.484;2023-03-05T11:05:39;6.90;99.90
44069;DHT22;29738;51.234;5.484;2023-03-05T11:08:27;6.70;99.90
44069;DHT22;29738;51.234;5.484;2023-03-05T11:11:15;6.80;99.90
44069;DHT22;29738;51.234;5.484;2023-03-05T11:13:54;7.00;99.90
44069;DHT22;29738;51.234;5.484;2023-03-05T11:16:26;7.20;99.90
44069;DHT22;29738;51.234;5.484;2023-03-05T11:19:10;7.10;99.90
44069;DHT22;29738;51.234;5.484;2023-03-05T11:21:36;7.00;99.90
44069;DHT22;29738;51.234;5.484;2023-03-05T11:24:23;7.10;99.90
44069;DHT22;29738;51.234;5.484;2023-03-05T11:26:53;6.80;99.90
44069;DHT22;29738;51.234;5.484;2023-03-05T11:29:24;6.60;99.90
44069;DHT22;29738;51.234;5.484;2023-03-05T11:31:51;6.60;99.90
44069;DHT22;29738;51.234;5.484;2023-03-05T11:36:59;6.80;99.90
44069;DHT22;29738;51.234;5.484;2023-03-05T11:39:31;6.50;99.90
44069;DHT22;29738;51.234;5.484;2023-03-05T11:42:12;6.50;99.90
44069;DHT22;29738;51.234;5.484;2023-03-05T11:44:53;6.50;99.90
44069;DHT22;29738;51.234;5.484;2023-03-05T11:50:19;6.60;99.90
44069;DHT22;29738;51.234;5.484;2023-03-05T11:52:47;6.60;99.90
44069;DHT22;29738;51.234;5.484;2023-03-05T11:58:16;6.50;99.90
44069;DHT22;29738;51.234;5.484;2023-03-05T12:00:46;6.60;99.90
44069;DHT22;29738;51.234;5.484;2023-03-05T12:03:20;6.60;99.90
44069;DHT22;29738;51.234;5.484;2023-03-05T12:05:53;6.70;99.90
44069;DHT22;29738;51.234;5.484;2023-03-05T12:08:36;6.80;99.90
44069;DHT22;29738;51.234;5.484;2023-03-05T12:11:18;6.90;99.90
44069;DHT22;29738;51.234;5.484;2023-03-05T12:13:58;6.80;99.90
44069;DHT22;29738;51.234;5.484;2023-03-05T12:16:43;7.00;99.90
44069;DHT22;29738;51.234;5.484;2023-03-05T12:22:05;7.20;99.90
44069;DHT22;29738;51.234;5.484;2023-03-05T12:24:39;7.00;99.90
44069;DHT22;29738;51.234;5.484;2023-03-05T12:27:08;7.00;99.90
44069;DHT22;29738;51.234;5.484;2023-03-05T12:29:49;7.20;99.90
44069;DHT22;29738;51.234;5.484;2023-03-05T12:35:04;6.90;99.90
44069;DHT22;29738;51.234;5.484;2023-03-05T12:42:41;7.20;99.90
44069;DHT22;29738;51.234;5.484;2023-03-05T12:47:40;7.30;99.90
44069;DHT22;29738;51.234;5.484;2023-03-05T12:52:55;7.40;99.90
44069;DHT22;29738;51.234;5.484;2023-03-05T13:03:37;7.60;99.90
44069;DHT22;29738;51.234;5.484;2023-03-05T13:06:05;7.70;99.90
44069;DHT22;29738;51.234;5.484;2023-03-05T13:08:34;7.70;99.90
44069;DHT22;29738;51.234;5.484;2023-03-05T13:11:27;7.50;99.90
44069;DHT22;29738;51.234;5.484;2023-03-05T13:13:54;7.30;99.90
44069;DHT22;29738;51.234;5.484;2023-03-05T13:16:36;7.40;99.90
44069;DHT22;29738;51.234;5.484;2023-03-05T13:19:02;7.20;99.90
44069;DHT22;29738;51.234;5.484;2023-03-05T13:21:31;7.00;99.90
44069;DHT22;29738;51.234;5.484;2023-03-05T13:24:02;7.00;99.90
44069;DHT22;29738;51.234;5.484;2023-03-05T13:26:35;7.40;99.90
44069;DHT22;29738;51.234;5.484;2023-03-05T13:29:14;7.40;99.90
44069;DHT22;29738;51.234;5.484;2023-03-05T13:31:43;7.30;99.90
44069;DHT22;29738;51.234;5.484;2023-03-05T13:34:19;7.40;99.90
44069;DHT22;29738;51.234;5.484;2023-03-05T13:36:55;7.30;99.90
44069;DHT22;29738;51.234;5.484;2023-03-05T13:39:25;7.40;99.90
44069;DHT22;29738;51.234;5.484;2023-03-05T13:42:00;7.50;99.90
44069;DHT22;29738;51.234;5.484;2023-03-05T13:44:26;7.80;99.90
44069;DHT22;29738;51.234;5.484;2023-03-05T13:47:06;7.60;99.90
44069;DHT22;29738;51.234;5.484;2023-03-05T13:49:32;7.50;99.90
44069;DHT22;29738;51.234;5.484;2023-03-05T13:51:58;7.40;99.90
44069;DHT22;29738;51.234;5.484;2023-03-05T13:54:25;7.30;99.90
44069;DHT22;29738;51.234;5.484;2023-03-05T13:56:58;7.20;99.90
44069;DHT22;29738;51.234;5.484;2023-03-05T13:59:25;7.00;99.90
44069;DHT22;29738;51.234;5.484;2023-03-05T14:01:52;7.10;99.90
44069;DHT22;29738;51.234;5.484;2023-03-05T14:04:21;7.20;99.90
44069;DHT22;29738;51.234;5.484;2023-03-05T14:09:27;7.20;99.90
44069;DHT22;29738;51.234;5.484;2023-03-05T14:11:58;6.80;99.90
44069;DHT22;29738;51.234;5.484;2023-03-05T14:14:27;6.80;99.90
44069;DHT22;29738;51.234;5.484;2023-03-05T14:16:53;6.60;99.90
44069;DHT22;29738;51.234;5.484;2023-03-05T14:19:45;6.50;99.90
44069;DHT22;29738;51.234;5.484;2023-03-05T14:22:46;6.30;99.90
44069;DHT22;29738;51.234;5.484;2023-03-05T14:28:21;6.20;99.90
44069;DHT22;29738;51.234;5.484;2023-03-05T14:30:49;6.30;99.90
44069;DHT22;29738;51.234;5.484;2023-03-05T14:33:25;6.20;99.90
44069;DHT22;29738;51.234;5.484;2023-03-05T14:35:51;5.90;99.90
44069;DHT22;29738;51.234;5.484;2023-03-05T14:38:24;6.10;99.90
44069;DHT22;29738;51.234;5.484;2023-03-05T14:40:50;6.10;99.90
44069;DHT22;29738;51.234;5.484;2023-03-05T14:43:16;6.30;99.90
44069;DHT22;29738;51.234;5.484;2023-03-05T14:45:43;6.10;99.90
44069;DHT22;29738;51.234;5.484;2023-03-05T14:48:11;5.80;99.90
44069;DHT22;29738;51.234;5.484;2023-03-05T14:50:45;5.60;99.90
44069;DHT22;29738;51.234;5.484;2023-03-05T14:53:26;5.30;99.90
44069;DHT22;29738;51.234;5.484;2023-03-05T14:55:53;5.30;99.90
44069;DHT22;29738;51.234;5.484;2023-03-05T14:58:28;5.00;99.90
44069;DHT22;29738;51.234;5.484;2023-03-05T15:00:56;5.10;99.90
44069;DHT22;29738;51.234;5.484;2023-03-05T15:03:23;5.40;99.90
44069;DHT22;29738;51.234;5.484;2023-03-05T15:05:51;5.50;99.90
44069;DHT22;29738;51.234;5.484;2023-03-05T15:08:21;5.60;99.90
44069;DHT22;29738;51.234;5.484;2023-03-05T15:10:48;6.00;99.90
44069;DHT22;29738;51.234;5.484;2023-03-05T15:13:14;6.10;99.90
44069;DHT22;29738;51.234;5.484;2023-03-05T15:15:41;6.20;99.90
44069;DHT22;29738;51.234;5.484;2023-03-05T15:18:16;6.30;99.90
44069;DHT22;29738;51.234;5.484;2023-03-05T15:20:43;6.50;99.90
44069;DHT22;29738;51.234;5.484;2023-03-05T15:23:09;6.60;99.90
44069;DHT22;29738;51.234;5.484;2023-03-05T15:25:37;6.80;99.90
44069;DHT22;29738;51.234;5.484;2023-03-05T15:28:03;7.00;99.90
44069;DHT22;29738;51.234;5.484;2023-03-05T15:30:40;7.00;99.90
44069;DHT22;29738;51.234;5.484;2023-03-05T15:33:09;7.00;99.90
44069;DHT22;29738;51.234;5.484;2023-03-05T15:35:36;7.00;99.90
44069;DHT22;29738;51.234;5.484;2023-03-05T15:38:02;7.10;99.90
44069;DHT22;29738;51.234;5.484;2023-03-05T15:40:28;7.20;99.90
44069;DHT22;29738;51.234;5.484;2023-03-05T15:42:55;7.10;99.90
44069;DHT22;29738;51.234;5.484;2023-03-05T15:45:21;6.90;99.90
44069;DHT22;29738;51.234;5.484;2023-03-05T15:47:48;6.60;99.90
44069;DHT22;29738;51.234;5.484;2023-03-05T15:50:15;6.80;99.90
44069;DHT22;29738;51.234;5.484;2023-03-05T15:52:41;6.80;99.90
44069;DHT22;29738;51.234;5.484;2023-03-05T15:55:07;7.10;99.90
44069;DHT22;29738;51.234;5.484;2023-03-05T15:57:36;7.20;99.90
44069;DHT22;29738;51.234;5.484;2023-03-05T16:00:06;7.20;99.90
44069;DHT22;29738;51.234;5.484;2023-03-05T16:02:32;7.30;99.90
44069;DHT22;29738;51.234;5.484;2023-03-05T16:04:58;7.40;99.90
44069;DHT22;29738;51.234;5.484;2023-03-05T16:07:24;7.40;99.90
44069;DHT22;29738;51.234;5.484;2023-03-05T16:09:50;7.50;99.90
44069;DHT22;29738;51.234;5.484;2023-03-05T16:12:20;7.30;99.90
44069;DHT22;29738;51.234;5.484;2023-03-05T16:14:47;7.40;99.90
44069;DHT22;29738;51.234;5.484;2023-03-05T16:17:15;7.10;99.90
44069;DHT22;29738;51.234;5.484;2023-03-05T16:19:46;7.10;99.90
44069;DHT22;29738;51.234;5.484;2023-03-05T16:22:12;7.00;99.90
44069;DHT22;29738;51.234;5.484;2023-03-05T16:24:38;7.00;99.90
44069;DHT22;29738;51.234;5.484;2023-03-05T16:27:04;7.00;99.90
44069;DHT22;29738;51.234;5.484;2023-03-05T16:29:30;6.90;99.90
44069;DHT22;29738;51.234;5.484;2023-03-05T16:32:01;6.80;99.90
44069;DHT22;29738;51.234;5.484;2023-03-05T16:34:27;6.90;99.90
44069;DHT22;29738;51.234;5.484;2023-03-05T16:36:53;6.90;99.90
44069;DHT22;29738;51.234;5.484;2023-03-05T16:39:20;6.90;99.90
44069;DHT22;29738;51.234;5.484;2023-03-05T16:41:46;6.60;99.90
44069;DHT22;29738;51.234;5.484;2023-03-05T16:44:12;6.80;99.90
44069;DHT22;29738;51.234;5.484;2023-03-05T16:46:38;6.60;99.90
44069;DHT22;29738;51.234;5.484;2023-03-05T16:49:06;6.60;99.90
44069;DHT22;29738;51.234;5.484;2023-03-05T16:51:33;6.60;99.90
44069;DHT22;29738;51.234;5.484;2023-03-05T16:53:59;6.50;99.90
44069;DHT22;29738;51.234;5.484;2023-03-05T16:56:25;6.40;99.90
44069;DHT22;29738;51.234;5.484;2023-03-05T16:58:54;6.50;99.90
44069;DHT22;29738;51.234;5.484;2023-03-05T17:01:20;6.60;99.90
44069;DHT22;29738;51.234;5.484;2023-03-05T17:03:47;6.40;99.90
44069;DHT22;29738;51.234;5.484;2023-03-05T17:06:21;6.40;99.90
44069;DHT22;29738;51.234;5.484;2023-03-05T17:08:48;6.20;99.90
44069;DHT22;29738;51.234;5.484;2023-03-05T17:11:15;6.40;99.90